Capitan FAP Carlos Martinez De Pinillos International Airport
SPRU : now visible

Airfield :











YOU CAN JOIN US ON...

 
LOGIN :

Register | Disclaimer

   EN    FR    IT 

 









Legend :    VFR   Marginal VFR   IFR   Intensive IFR   Very Intensive IFR
Visi :
Ceiling :
>= 8 km
>= 3000ft
5 to 8 km
1000 to 3000 ft
1500m to 5 km
500 to 1000 ft
800 to 1500m
200 to 500 ft
< 800m
< 200 ft
Symbols :   Thunderstorms  Fog  Heavy snow  Heavy precipitations  Wind > 20 kt






- Airport Elevation : 106 ft
- IATA code : TRU


SPRU - Capitan FAP Carlos Martinez De Pinillos International

METAR N/A
TAF SPRU
Valid from the 04 at 00:00 until the 05 at 00:00 UTC


032300Z 0400/0424 16008KT 9000 NSC TX21/0419Z TN17/0411Z
BECMG 0409/0411 6000 NSC
TEMPO 0412/0414 4500 BR BKN009
BECMG 0417/0419 9000
SPIM FIR / South America



MET'MAP, your aeronautical weather chart ! - Copyright ORBIFLY December 2007 - Disclaimer

ORBIFLY MET'MAP TEAM :

Programming & Development : Alexandra Zaïnal
Concept & original design : Baudouin d'Aumeries
Assistance for programming : Marc-Olivier Méhu
Technical & hardware support : Manuel Goepfert

Contact : metmap@orbifly.com




SOURCES & CREDITS :

   NOAA       Earth
Advisory